Methuen, Massachusetts
Current Conditions -  °F | °C
As of 11:54 AM on Tuesday 27 Jan 2015 (Local Time) from KLWM Reporting Station
Moderate Fog Moderate Fog  
Wind Chill: -3°   Ceiling: 700
Heat Index: 14°   Visibility: 0.25mi
Dew Point: 11°   Wind: 17mph
Humidity: 88%   Direction: 360°N
Pressure: 29.54"   Gusts: 28mph
Location:  42.73°N, 71.19°W
Report Text: KLWM 271654Z AUTO 36015G24KT 1/4SM FZFG VV007 M10/M12 A2954 RMK AO2 PK WND 35032/1615 SLP005 T11001117 PWINO FZRANO $
Loading
Personal Weather Stations






























Interactive Weather Map New forecast layout! Learn more

10-Day Weather Forecast

Advertisements
Track Severe Weather on mobile